Time;durP1;ratioP1;P1;durP2;ratioP2;P2;SDS_P1;SDS_P2;PMS_P1;PMS_P2;Temp;Humidity;BMP_temperature;BMP_pressure;BME280_temperature;BME280_humidity;BME280_pressure;Samples;Min_cycle;Max_cycle;Signal;HPM_P1;HPM_P2
2020/12/04 00:00:48;;;;;;;67.87;28.63;;;;;;;0.13;97.72;100642.59;1785196;79;21093;-67
2020/12/04 00:03:15;;;;;;;65.57;32.40;;;;;;;0.18;97.90;100649.06;1785166;80;21817;-65
2020/12/04 00:05:43;;;;;;;70.07;30.50;;;;;;;0.15;97.73;100651.18;1788761;79;21176;-64
2020/12/04 00:08:11;;;;;;;69.53;30.27;;;;;;;0.14;97.76;100653.52;1806985;78;21034;-66
2020/12/04 00:10:38;;;;;;;54.70;24.57;;;;;;;0.10;97.84;100656.11;1804986;79;21605;-69
2020/12/04 00:13:05;;;;;;;61.80;26.37;;;;;;;0.12;98.12;100648.86;1790225;79;21583;-70
2020/12/04 00:15:33;;;;;;;63.67;27.23;;;;;;;0.05;98.27;100660.56;1817270;79;21348;-66
2020/12/04 00:18:01;;;;;;;46.33;25.00;;;;;;;0.00;98.50;100662.88;1786841;79;21677;-69
2020/12/04 00:20:29;;;;;;;50.67;20.93;;;;;;;0.05;98.71;100659.76;1784334;80;21098;-69
2020/12/04 00:22:56;;;;;;;61.30;29.73;;;;;;;0.08;98.78;100661.59;1784517;80;21046;-66
2020/12/04 00:25:24;;;;;;;69.43;30.67;;;;;;;0.07;98.70;100651.98;1802888;79;21144;-69
2020/12/04 00:27:52;;;;;;;65.20;30.40;;;;;;;0.07;98.87;100641.41;1798725;79;21601;-68
2020/12/04 00:30:20;;;;;;;59.40;26.67;;;;;;;0.10;98.96;100641.57;1784355;80;21002;-68
2020/12/04 00:32:47;;;;;;;49.57;21.80;;;;;;;0.07;99.10;100638.77;1786504;79;21515;-62
2020/12/04 00:35:15;;;;;;;66.00;29.97;;;;;;;0.12;99.29;100636.96;1785185;79;21575;-66
2020/12/04 00:37:43;;;;;;;75.47;33.13;;;;;;;0.19;99.32;100632.70;1798179;79;21161;-67
2020/12/04 00:40:11;;;;;;;60.60;24.40;;;;;;;0.15;99.20;100634.82;1816565;79;21189;-63
2020/12/04 00:42:39;;;;;;;58.10;27.10;;;;;;;0.11;99.44;100635.30;1816376;79;21043;-62
2020/12/04 00:45:07;;;;;;;59.50;26.20;;;;;;;0.07;99.59;100637.93;1813991;79;21035;-65
2020/12/04 00:47:35;;;;;;;58.17;29.13;;;;;;;0.05;99.83;100642.05;1802457;79;21520;-64
2020/12/04 00:50:03;;;;;;;48.47;22.63;;;;;;;0.05;99.98;100638.08;1785405;79;21101;-63
2020/12/04 00:52:31;;;;;;;46.17;23.60;;;;;;;0.09;100.00;100640.77;1816482;79;21359;-62
2020/12/04 00:54:59;;;;;;;50.20;25.60;;;;;;;0.17;100.00;100621.45;1813206;79;21046;-65
2020/12/04 00:57:27;;;;;;;56.47;27.77;;;;;;;0.15;100.00;100623.41;1784237;80;21121;-62
2020/12/04 00:59:54;;;;;;;50.63;25.90;;;;;;;0.11;100.00;100631.33;1753781;80;22279;-63
2020/12/04 01:02:23;;;;;;;60.87;31.27;;;;;;;0.13;100.00;100625.41;1784505;80;21530;-66
2020/12/04 01:04:50;;;;;;;58.27;24.27;;;;;;;0.13;100.00;100628.05;1793601;79;22318;-65
2020/12/04 01:07:18;;;;;;;65.67;29.50;;;;;;;0.15;100.00;100625.56;1817017;78;21648;-64
2020/12/04 01:09:46;;;;;;;65.27;28.87;;;;;;;0.12;100.00;100629.03;1830661;78;21149;-65
2020/12/04 01:12:14;;;;;;;71.23;31.33;;;;;;;0.10;100.00;100630.50;1798837;79;21597;-67
2020/12/04 01:14:42;;;;;;;53.37;26.40;;;;;;;0.18;100.00;100629.72;1798768;79;21569;-67
2020/12/04 01:17:10;;;;;;;58.13;26.90;;;;;;;0.27;100.00;100627.44;1798927;79;21367;-66
2020/12/04 01:19:37;;;;;;;49.63;22.97;;;;;;;0.31;100.00;100636.21;1798891;79;21629;-66
2020/12/04 01:22:05;;;;;;;59.13;26.50;;;;;;;0.31;100.00;100629.59;1798748;79;21156;-69
2020/12/04 01:24:32;;;;;;;63.23;30.73;;;;;;;0.31;100.00;100627.44;1799401;78;21180;-67
2020/12/04 01:27:00;;;;;;;62.03;28.37;;;;;;;0.32;100.00;100628.62;1801031;78;21113;-67
2020/12/04 01:29:28;;;;;;;82.63;35.93;;;;;;;0.32;100.00;100617.20;1798929;79;21378;-65
2020/12/04 01:31:55;;;;;;;61.73;30.80;;;;;;;0.23;100.00;100625.61;1827523;78;21124;-64
2020/12/04 01:34:23;;;;;;;61.97;28.23;;;;;;;0.23;100.00;100621.64;1830566;78;21006;-64
2020/12/04 01:36:51;;;;;;;54.63;25.87;;;;;;;0.18;100.00;100617.81;1822132;78;21097;-64
2020/12/04 01:39:19;;;;;;;44.23;21.30;;;;;;;0.19;100.00;100622.92;1798758;79;21041;-71
2020/12/04 01:41:46;;;;;;;57.67;24.50;;;;;;;0.16;100.00;100620.61;1811554;78;21566;-67
2020/12/04 01:44:14;;;;;;;60.67;28.30;;;;;;;0.18;100.00;100617.81;1830565;78;21121;-69
2020/12/04 01:46:41;;;;;;;54.23;23.43;;;;;;;0.21;100.00;100611.70;1829148;78;21570;-67
2020/12/04 01:49:09;;;;;;;66.23;25.73;;;;;;;0.22;100.00;100606.75;1829875;78;21098;-65
2020/12/04 01:51:37;;;;;;;65.10;27.27;;;;;;;0.17;100.00;100609.05;1804842;78;21117;-64
2020/12/04 01:54:05;;;;;;;53.87;23.93;;;;;;;0.15;100.00;100603.57;1816509;78;23502;-66
2020/12/04 01:56:38;;;;;;;50.60;23.60;;;;;;;0.13;100.00;100602.92;1831420;78;21145;-65
2020/12/04 01:59:06;;;;;;;71.13;35.73;;;;;;;0.20;100.00;100598.14;1812628;78;21144;-66
2020/12/04 02:01:38;;;;;;;67.83;30.87;;;;;;;0.21;100.00;100604.26;1798795;79;21045;-64
2020/12/04 02:04:08;;;;;;;67.82;32.63;;;;;;;0.19;100.00;100604.41;1788417;78;21141;-64
2020/12/04 02:06:53;;;;;;;53.53;26.87;;;;;;;0.23;100.00;100612.39;1831571;78;21399;-64
2020/12/04 02:09:37;;;;;;;60.33;25.67;;;;;;;0.24;100.00;100607.41;1831402;78;21136;-66
2020/12/04 02:12:05;;;;;;;63.73;28.37;;;;;;;0.23;100.00;100615.52;1831441;78;21002;-66
2020/12/04 02:14:33;;;;;;;63.07;29.60;;;;;;;0.19;100.00;100611.55;1830507;78;21145;-65
2020/12/04 02:17:05;;;;;;;42.07;19.50;;;;;;;0.20;100.00;100611.36;1800661;78;21164;-65
2020/12/04 02:19:40;;;;;;;51.73;25.20;;;;;;;0.20;100.00;100607.89;1799112;78;21343;-70
2020/12/04 02:22:09;;;;;;;54.23;25.27;;;;;;;0.13;100.00;100616.98;1831285;78;21133;-68
2020/12/04 02:24:39;;;;;;;37.60;18.97;;;;;;;0.12;100.00;100618.45;1830660;78;21042;-67
2020/12/04 02:27:09;;;;;;;44.47;23.87;;;;;;;0.12;100.00;100622.41;1831505;78;21164;-64
2020/12/04 02:29:39;;;;;;;35.87;16.93;;;;;;;0.18;100.00;100624.43;1831320;78;20975;-65
2020/12/04 02:32:13;;;;;;;47.83;18.77;;;;;;;0.26;100.00;100625.28;1831717;78;22088;-67
2020/12/04 02:34:41;;;;;;;;;;;;;;;0.32;100.00;100627.78;1809895;78;21569;-66
2020/12/04 02:37:09;;;;;;;34.17;16.67;;;;;;;0.37;100.00;100613.58;1803375;78;20386;-65
2020/12/04 02:39:37;;;;;;;59.40;26.93;;;;;;;0.35;100.00;100620.84;1831713;78;21613;-64
2020/12/04 02:42:05;;;;;;;47.37;23.97;;;;;;;0.35;100.00;100622.98;1827689;78;21135;-67
2020/12/04 02:44:33;;;;;;;49.60;25.60;;;;;;;0.33;100.00;100621.51;1780833;79;21440;-69
2020/12/04 02:47:01;;;;;;;48.93;22.87;;;;;;;0.35;100.00;100622.98;1798886;79;21795;-65
2020/12/04 02:49:29;;;;;;;40.47;19.40;;;;;;;0.38;100.00;100612.59;1798750;79;21117;-67
2020/12/04 02:51:59;;;;;;;57.90;25.67;;;;;;;0.42;100.00;100608.14;1798760;79;21013;-68
2020/12/04 02:54:26;;;;;;;41.60;23.10;;;;;;;0.43;100.00;100608.45;1819008;78;21103;-66
2020/12/04 02:56:55;;;;;;;44.47;22.43;;;;;;;0.45;100.00;100604.33;1801027;78;21457;-65
2020/12/04 02:59:22;;;;;;;51.23;23.17;;;;;;;0.42;100.00;100607.31;1798802;79;21676;-65
2020/12/04 03:01:50;;;;;;;46.87;21.47;;;;;;;0.39;100.00;100612.91;1801099;78;21566;-65
2020/12/04 03:04:18;;;;;;;53.47;25.20;;;;;;;0.35;100.00;100611.58;1818948;78;21102;-66
2020/12/04 03:06:45;;;;;;;53.70;27.53;;;;;;;0.33;100.00;100602.98;1830350;78;21121;-64
2020/12/04 03:09:14;;;;;;;59.87;27.97;;;;;;;0.38;100.00;100601.48;1823012;77;22360;-65
2020/12/04 03:11:41;;;;;;;41.87;18.20;;;;;;;0.37;100.00;100599.02;1800526;79;21153;-66
2020/12/04 03:14:09;;;;;;;50.17;22.37;;;;;;;0.34;100.00;100604.62;1790972;79;21536;-64
2020/12/04 03:16:37;;;;;;;53.27;21.20;;;;;;;0.31;100.00;100599.66;1808142;79;21133;-64
2020/12/04 03:19:05;;;;;;;41.53;21.20;;;;;;;0.29;100.00;100604.27;1815791;79;21583;-64
2020/12/04 03:21:33;;;;;;;55.47;25.60;;;;;;;0.28;100.00;100603.97;1816237;79;21139;-65
2020/12/04 03:24:01;;;;;;;45.57;25.27;;;;;;;0.28;100.00;100603.48;1804615;79;21563;-65
2020/12/04 03:26:28;;;;;;;50.27;25.63;;;;;;;0.28;100.00;100599.50;1812933;79;21161;-64
2020/12/04 03:28:56;;;;;;;56.10;25.80;;;;;;;0.27;100.00;100603.13;1799055;79;21157;-68
2020/12/04 03:31:23;;;;;;;59.27;28.27;;;;;;;0.25;100.00;100595.84;1784279;80;21602;-66
2020/12/04 03:33:51;;;;;;;62.77;29.43;;;;;;;0.26;100.00;100601.96;1788115;79;21191;-65
2020/12/04 03:36:19;;;;;;;46.93;23.43;;;;;;;0.25;100.00;100593.20;1786168;79;21634;-65
2020/12/04 03:38:46;;;;;;;48.33;23.83;;;;;;;0.28;100.00;100596.03;1794605;79;21018;-64
2020/12/04 03:41:14;;;;;;;46.23;19.23;;;;;;;0.30;100.00;100593.54;1816407;79;21598;-69
2020/12/04 03:43:41;;;;;;;60.30;28.80;;;;;;;0.33;100.00;100596.37;1803448;79;21098;-66
2020/12/04 03:46:12;;;;;;;61.93;26.13;;;;;;;0.32;100.00;100590.25;1784852;79;21614;-65
2020/12/04 03:48:41;;;;;;;45.03;22.87;;;;;;;0.32;100.00;100587.61;1784294;80;21141;-64
2020/12/04 03:51:09;;;;;;;56.37;26.87;;;;;;;0.35;100.00;100584.62;1784462;79;21527;-65
2020/12/04 03:53:36;;;;;;;53.30;25.87;;;;;;;0.39;100.00;100585.95;1787539;79;21602;-65
2020/12/04 03:56:04;;;;;;;53.23;25.80;;;;;;;0.49;100.00;100595.06;1794205;79;21164;-64
2020/12/04 03:58:31;;;;;;;47.00;23.83;;;;;;;0.50;100.00;100597.22;1784722;79;21602;-67
2020/12/04 04:00:59;;;;;;;41.87;18.73;;;;;;;0.46;100.00;100603.34;1810641;79;21034;-73
2020/12/04 04:03:27;;;;;;;48.87;23.23;;;;;;;0.44;100.00;100600.84;1816689;79;21591;-64
2020/12/04 04:05:55;;;;;;;52.20;25.27;;;;;;;0.49;100.00;100595.56;1796596;79;21153;-65
2020/12/04 04:08:22;;;;;;;53.17;22.33;;;;;;;0.50;100.00;100595.91;1812610;78;21122;-67
2020/12/04 04:10:50;;;;;;;57.67;27.30;;;;;;;0.50;100.00;100590.12;1829095;78;22354;-66
2020/12/04 04:13:18;;;;;;;46.83;18.13;;;;;;;0.51;100.00;100597.56;1830078;78;20975;-65
2020/12/04 04:15:45;;;;;;;50.80;23.63;;;;;;;0.52;100.00;100593.44;1831658;78;22264;-65
2020/12/04 04:18:16;;;;;;;62.50;28.97;;;;;;;0.53;100.00;100596.92;1830745;78;21026;-65
2020/12/04 04:20:43;;;;;;;66.13;27.37;;;;;;;0.49;100.00;100591.59;1825220;78;21137;-65
2020/12/04 04:23:11;;;;;;;40.70;18.60;;;;;;;0.44;100.00;100597.38;1817854;78;22216;-65
2020/12/04 04:25:41;;;;;;;59.10;26.43;;;;;;;0.51;100.00;100597.56;1810736;78;21186;-65
2020/12/04 04:28:11;;;;;;;51.67;27.07;;;;;;;0.52;100.00;100598.73;1831514;78;21602;-67
2020/12/04 04:30:39;;;;;;;48.77;21.90;;;;;;;0.54;100.00;100595.41;1806305;78;21130;-65
2020/12/04 04:33:07;;;;;;;53.20;26.73;;;;;;;0.59;100.00;100589.13;1801526;78;21779;-65
2020/12/04 04:35:35;;;;;;;55.87;26.57;;;;;;;0.63;100.00;100588.30;1831345;78;22261;-66
2020/12/04 04:38:04;;;;;;;51.37;23.87;;;;;;;0.65;100.00;100592.45;1818841;78;21196;-66
2020/12/04 04:40:31;;;;;;;50.23;19.37;;;;;;;0.67;100.00;100589.66;1801515;78;21175;-65
2020/12/04 04:43:09;;;;;;;62.37;27.47;;;;;;;0.67;100.00;100588.33;1820741;78;21101;-67
2020/12/04 04:45:44;;;;;;;55.67;26.10;;;;;;;0.60;100.00;100584.67;1832384;78;21050;-67
2020/12/04 04:48:21;;;;;;;54.48;26.52;;;;;;;0.58;100.00;100591.94;1828540;78;21526;-66
2020/12/04 04:50:49;;;;;;;57.93;26.67;;;;;;;0.58;100.00;100589.28;1813627;78;21125;-65
2020/12/04 04:53:16;;;;;;;61.13;24.07;;;;;;;0.53;100.00;100585.80;1754158;78;21140;-67
2020/12/04 04:55:44;;;;;;;54.13;29.03;;;;;;;0.52;100.00;100592.12;1798808;79;21117;-68
2020/12/04 04:58:12;;;;;;;58.10;29.40;;;;;;;0.51;100.00;100594.42;1798905;79;21133;-66
2020/12/04 05:00:39;;;;;;;53.27;25.30;;;;;;;0.55;100.00;100593.10;1798492;79;21373;-65
2020/12/04 05:03:08;;;;;;;46.57;23.07;;;;;;;0.54;100.00;100583.50;1756894;81;21169;-64
2020/12/04 05:05:46;;;;;;;55.50;24.67;;;;;;;0.48;100.00;100589.95;1761480;81;21561;-67
2020/12/04 05:08:19;;;;;;;57.37;28.10;;;;;;;0.46;100.00;100597.22;1754082;81;21192;-66
2020/12/04 05:10:47;;;;;;;45.47;23.20;;;;;;;0.47;100.00;100601.03;1777161;80;21158;-68
2020/12/04 05:13:19;;;;;;;59.03;29.50;;;;;;;0.53;100.00;100605.66;1777031;80;21367;-64
2020/12/04 05:15:47;;;;;;;50.30;25.03;;;;;;;0.56;100.00;100583.34;1777162;80;21125;-64
2020/12/04 05:18:19;;;;;;;48.17;23.27;;;;;;;0.52;100.00;100583.34;1805362;79;22294;-65
2020/12/04 05:20:51;;;;;;;49.03;24.73;;;;;;;0.53;100.00;100578.39;1802720;79;21579;-64
2020/12/04 05:23:19;;;;;;;33.40;16.35;;;;;;;0.52;100.00;100588.14;1809286;79;21158;-65
2020/12/04 05:25:50;;;;;;;53.17;26.27;;;;;;;0.50;100.00;100587.47;1786734;79;21547;-65
2020/12/04 05:28:20;;;;;;;30.60;16.63;;;;;;;0.46;100.00;100582.17;1784370;79;21516;-65
2020/12/04 05:31:06;;;;;;;44.20;24.63;;;;;;;0.51;100.00;100577.22;1791221;79;21066;-66
2020/12/04 05:33:35;;;;;;;49.87;25.83;;;;;;;0.56;100.00;100581.53;1777419;80;21142;-64
2020/12/04 05:36:04;;;;;;;50.77;23.50;;;;;;;0.59;100.00;100576.39;1785675;79;21146;-64
2020/12/04 05:38:32;;;;;;;44.50;21.60;;;;;;;0.57;100.00;100583.20;1789747;79;21617;-65
2020/12/04 05:41:09;;;;;;;41.03;18.27;;;;;;;0.58;100.00;100584.83;1799201;79;21146;-65
2020/12/04 05:43:39;;;;;;;47.47;22.93;;;;;;;0.59;100.00;100585.66;1809187;79;21548;-65
2020/12/04 05:46:25;;;;;;;51.03;23.67;;;;;;;0.59;100.00;100577.72;1784564;79;21579;-64
2020/12/04 05:49:07;;;;;;;47.13;21.53;;;;;;;0.55;100.00;100586.48;1777704;79;21546;-66
2020/12/04 05:51:37;;;;;;;41.57;20.60;;;;;;;0.53;100.00;100595.59;1804917;79;21193;-63
2020/12/04 05:54:10;;;;;;;44.97;21.03;;;;;;;0.51;100.00;100593.59;1795649;79;20997;-65
2020/12/04 05:56:39;;;;;;;41.65;20.65;;;;;;;0.53;100.00;100598.23;1777281;80;24972;-70
2020/12/04 05:59:13;;;;;;;51.93;26.40;;;;;;;0.57;100.00;100592.95;1778349;79;21586;-63
2020/12/04 06:01:44;;;;;;;;;;;;;;;0.58;100.00;100583.99;1810907;79;21137;-64
2020/12/04 06:04:18;;;;;;;44.70;20.13;;;;;;;0.55;100.00;100601.53;1809032;79;21186;-65
2020/12/04 06:06:46;;;;;;;50.17;26.97;;;;;;;0.50;100.00;100599.87;1757479;80;21142;-64
2020/12/04 06:09:15;;;;;;;48.40;23.23;;;;;;;0.47;100.00;100601.03;1805747;78;21526;-65
2020/12/04 06:11:46;;;;;;;52.53;28.13;;;;;;;0.50;100.00;100601.19;1789843;79;21159;-64
2020/12/04 06:14:19;;;;;;;57.90;26.70;;;;;;;0.46;100.00;100599.86;1816807;79;21126;-65
2020/12/04 06:17:09;;;;;;;42.38;19.02;;;;;;;0.43;100.00;100607.13;1795856;79;21198;-64
2020/12/04 06:19:41;;;;;;;53.77;25.80;;;;;;;0.42;100.00;100606.81;1803903;79;21138;-63
2020/12/04 06:22:14;;;;;;;46.03;24.03;;;;;;;0.48;100.00;100613.25;1807071;79;21137;-66
2020/12/04 06:24:58;;;;;;;51.60;26.20;;;;;;;0.55;100.00;100620.89;1805149;79;21630;-64
2020/12/04 06:27:44;;;;;;;51.20;24.10;;;;;;;0.58;100.00;100621.88;1799175;79;21117;-67
2020/12/04 06:30:17;;;;;;;36.67;19.03;;;;;;;0.65;100.00;100632.16;1784293;80;21358;-65
2020/12/04 06:32:50;;;;;;;43.90;18.62;;;;;;;0.60;100.00;100634.47;1791732;79;21118;-63
2020/12/04 06:35:42;;;;;;;59.10;30.60;;;;;;;0.60;100.00;100636.28;1794529;79;21161;-63
2020/12/04 06:38:40;;;;;;;59.27;27.53;;;;;;;0.61;100.00;100640.10;1784254;80;21871;-63
2020/12/04 06:41:34;;;;;;;55.37;25.77;;;;;;;0.66;100.00;100639.61;1784300;80;21180;-66
2020/12/04 06:44:07;;;;;;;67.70;30.40;;;;;;;0.68;100.00;100625.21;1784311;80;21455;-69
2020/12/04 06:46:39;;;;;;;63.42;28.32;;;;;;;0.67;100.00;100631.48;1784225;80;21146;-67
2020/12/04 06:52:07;;;;;;;58.10;26.23;;;;;;;0.70;100.00;100629.86;1846627;76;23292;-65
2020/12/04 06:54:39;;;;;;;49.48;25.90;;;;;;;0.66;100.00;100638.30;1817396;79;21046;-64
2020/12/04 06:57:08;;;;;;;58.48;32.33;;;;;;;0.63;100.00;100639.43;1817072;79;21330;-65
2020/12/04 06:59:38;;;;;;;51.63;24.10;;;;;;;0.65;100.00;100630.02;1817178;79;21149;-65
2020/12/04 07:02:16;;;;;;;55.30;28.53;;;;;;;0.59;100.00;100642.07;1808852;79;21026;-67
2020/12/04 07:04:52;;;;;;;49.33;24.67;;;;;;;0.58;100.00;100637.76;1817342;79;20968;-64
2020/12/04 07:07:22;;;;;;;61.37;32.97;;;;;;;0.59;100.00;100642.56;1795087;78;21586;-66
2020/12/04 07:09:55;;;;;;;54.53;27.63;;;;;;;0.61;100.00;100652.02;1784979;79;21638;-65
2020/12/04 07:12:26;;;;;;;58.73;28.27;;;;;;;0.65;100.00;100649.86;1785637;79;21606;-69
2020/12/04 07:14:56;;;;;;;61.63;32.47;;;;;;;0.68;100.00;100652.17;1785246;79;20939;-65
2020/12/04 07:17:29;;;;;;;80.40;35.30;;;;;;;0.70;100.00;100651.04;1807485;79;21537;-65
2020/12/04 07:20:01;;;;;;;64.30;33.02;;;;;;;0.76;100.00;100642.45;1817383;78;21528;-65
2020/12/04 07:22:29;;;;;;;59.07;28.83;;;;;;;0.76;100.00;100649.56;1815663;78;21317;-66
2020/12/04 07:24:58;;;;;;;63.50;30.10;;;;;;;0.75;100.00;100653.20;1809460;79;21136;-64
2020/12/04 07:27:28;;;;;;;57.90;27.03;;;;;;;0.72;100.00;100639.77;1784059;80;21161;-66
2020/12/04 07:29:55;;;;;;;55.13;26.83;;;;;;;0.71;100.00;100639.95;1785069;79;21609;-64
2020/12/04 07:32:25;;;;;;;62.70;28.13;;;;;;;0.76;100.00;100651.72;1777468;80;21177;-66
2020/12/04 07:34:53;;;;;;;63.20;30.00;;;;;;;0.78;100.00;100653.69;1782121;80;21380;-64
2020/12/04 07:37:27;;;;;;;59.40;29.40;;;;;;;0.75;100.00;100657.17;1784968;80;21582;-66
2020/12/04 07:39:55;;;;;;;60.27;27.67;;;;;;;0.73;100.00;100650.70;1783373;80;21026;-64
2020/12/04 07:42:23;;;;;;;72.70;33.87;;;;;;;0.70;100.00;100658.15;1752109;80;21148;-68
2020/12/04 07:44:52;;;;;;;69.15;31.42;;;;;;;0.71;100.00;100672.56;1724179;81;21192;-64
2020/12/04 07:47:20;;;;;;;48.13;25.17;;;;;;;0.72;100.00;100653.53;1753982;81;21201;-65
2020/12/04 07:49:54;;;;;;;62.23;28.33;;;;;;;0.73;100.00;100654.67;1744017;80;21230;-72
2020/12/04 07:52:25;;;;;;;69.83;33.10;;;;;;;0.72;100.00;100669.42;1747337;82;21632;-65
2020/12/04 07:55:05;;;;;;;75.97;36.63;;;;;;;0.74;100.00;100664.77;1718958;83;21045;-67
2020/12/04 07:57:41;;;;;;;80.30;38.37;;;;;;;0.72;100.00;100666.25;1719065;83;21164;-66
2020/12/04 08:00:09;;;;;;;69.33;31.60;;;;;;;0.70;100.00;100656.83;1703309;81;21649;-68
2020/12/04 08:02:41;;;;;;;67.23;31.63;;;;;;;0.68;100.00;100660.12;1717901;83;21160;-66
2020/12/04 08:05:09;;;;;;;59.80;30.97;;;;;;;0.70;100.00;100665.59;1731648;82;21641;-65
2020/12/04 08:07:38;;;;;;;79.77;37.60;;;;;;;0.75;100.00;100662.47;1681421;84;21672;-64
2020/12/04 08:10:06;;;;;;;60.47;27.17;;;;;;;0.77;100.00;100668.41;1702356;84;21168;-68
2020/12/04 08:12:34;;;;;;;84.43;39.30;;;;;;;0.78;100.00;100665.61;1778109;80;21180;-65
2020/12/04 08:15:03;;;;;;;63.30;29.80;;;;;;;0.76;100.00;100671.58;1784343;80;21146;-67
2020/12/04 08:17:31;;;;;;;75.37;38.30;;;;;;;0.78;100.00;100667.42;1755750;80;21183;-67
2020/12/04 08:19:59;;;;;;;74.83;33.43;;;;;;;0.74;100.00;100670.06;1753339;81;21117;-69
2020/12/04 08:22:32;;;;;;;80.10;38.30;;;;;;;0.73;100.00;100669.23;1770175;80;21140;-67
2020/12/04 08:25:10;;;;;;;76.00;33.57;;;;;;;0.78;100.00;100674.87;1753386;81;21386;-65
2020/12/04 08:27:45;;;;;;;76.00;31.77;;;;;;;0.86;100.00;100668.26;1754723;80;21185;-65
2020/12/04 08:30:21;;;;;;;87.65;40.48;;;;;;;0.90;100.00;100661.33;1784507;80;21121;-65
2020/12/04 08:33:03;;;;;;;76.23;33.47;;;;;;;0.91;100.00;100665.15;1760719;80;21584;-67
2020/12/04 08:35:35;;;;;;;65.20;28.43;;;;;;;0.90;100.00;100662.16;1735112;82;21128;-65
2020/12/04 08:38:12;;;;;;;64.92;30.50;;;;;;;0.83;100.00;100676.54;1752960;80;21367;-64
2020/12/04 08:40:50;;;;;;;77.60;34.73;;;;;;;0.87;100.00;100683.16;1784181;80;21180;-65
2020/12/04 08:43:21;;;;;;;67.10;33.10;;;;;;;0.95;100.00;100677.06;1736856;80;21553;-66
2020/12/04 08:45:56;;;;;;;58.47;25.80;;;;;;;1.04;100.00;100680.05;1780480;80;21165;-66
2020/12/04 08:48:26;;;;;;;76.20;39.43;;;;;;;1.09;100.00;100676.91;1763461;80;21145;-67
2020/12/04 08:51:00;;;;;;;75.13;35.10;;;;;;;1.06;100.00;100666.63;1735852;80;21372;-67
2020/12/04 08:53:29;;;;;;;70.93;32.77;;;;;;;1.03;100.00;100660.34;1754150;80;21168;-66
2020/12/04 08:55:59;;;;;;;68.63;30.43;;;;;;;1.07;100.00;100674.91;1784263;80;21143;-65
2020/12/04 08:58:27;;;;;;;75.23;35.67;;;;;;;1.07;100.00;100666.96;1784261;80;21019;-66
2020/12/04 09:00:57;;;;;;;63.73;27.07;;;;;;;1.11;100.00;100660.34;1757008;80;21179;-65
2020/12/04 09:03:30;;;;;;;68.45;32.85;;;;;;;1.13;100.00;100659.69;1763854;80;21513;-64
2020/12/04 09:05:58;;;;;;;46.33;25.08;;;;;;;1.08;100.00;100661.52;1756324;80;22267;-65
2020/12/04 09:08:25;;;;;;;64.57;27.63;;;;;;;1.08;100.00;100665.48;1784418;80;21149;-65
2020/12/04 09:10:53;;;;;;;69.77;36.60;;;;;;;1.07;100.00;100658.52;1761820;80;21616;-66
2020/12/04 09:13:21;;;;;;;72.90;38.37;;;;;;;1.05;100.00;100660.53;1750435;80;21559;-64
2020/12/04 09:15:49;;;;;;;80.33;44.27;;;;;;;1.10;100.00;100661.36;1784396;80;21395;-65
2020/12/04 09:18:17;;;;;;;65.30;33.87;;;;;;;1.16;100.00;100658.02;1781361;80;21141;-64
2020/12/04 09:20:45;;;;;;;70.97;35.20;;;;;;;1.24;100.00;100672.62;1734949;82;21544;-66
2020/12/04 09:23:13;;;;;;;61.33;29.07;;;;;;;1.17;100.00;100663.16;1727760;82;21002;-65
2020/12/04 09:25:41;;;;;;;58.23;29.97;;;;;;;1.19;100.00;100672.28;1749774;82;21121;-68
2020/12/04 09:28:10;;;;;;;54.40;27.70;;;;;;;1.19;100.00;100669.14;1730188;82;21388;-67
2020/12/04 09:30:39;;;;;;;54.37;27.97;;;;;;;1.24;100.00;100676.59;1761437;80;22417;-65
2020/12/04 09:33:06;;;;;;;75.53;32.37;;;;;;;1.22;100.00;100683.38;1767587;81;21169;-67
2020/12/04 09:35:35;;;;;;;81.80;40.88;;;;;;;1.20;100.00;100682.70;1776374;80;21137;-66
2020/12/04 09:38:03;;;;;;;58.33;32.70;;;;;;;1.13;100.00;100671.12;1768349;80;21105;-65
2020/12/04 09:40:31;;;;;;;75.27;36.60;;;;;;;1.12;100.00;100681.37;1739254;80;21197;-65
2020/12/04 09:43:00;;;;;;;68.90;34.60;;;;;;;1.15;100.00;100678.91;1741002;81;21227;-72
2020/12/04 09:45:29;;;;;;;83.73;43.87;;;;;;;1.14;100.00;100675.43;1762152;81;21755;-66
2020/12/04 09:47:57;;;;;;;53.80;28.27;;;;;;;1.18;100.00;100667.48;1739395;81;21579;-66
2020/12/04 09:50:25;;;;;;;72.05;36.08;;;;;;;1.22;100.00;100667.48;1744727;80;21139;-65
2020/12/04 09:52:53;;;;;;;77.42;37.75;;;;;;;1.23;100.00;100671.79;1737926;82;21259;-69
2020/12/04 09:55:23;;;;;;;68.95;37.50;;;;;;;1.22;100.00;100675.92;1754114;81;21133;-70
2020/12/04 09:57:50;;;;;;;86.30;39.15;;;;;;;1.20;100.00;100668.13;1750345;81;21046;-67
2020/12/04 10:00:18;;;;;;;68.30;30.62;;;;;;;1.19;100.00;100661.69;1736430;82;21102;-66
2020/12/04 10:02:46;;;;;;;80.15;38.88;;;;;;;1.18;100.00;100667.48;1736269;82;21153;-64
2020/12/04 10:05:14;;;;;;;64.30;31.68;;;;;;;1.19;100.00;100670.96;1763432;81;21602;-64
2020/12/04 10:07:42;;;;;;;79.00;39.08;;;;;;;1.18;100.00;100671.95;1762285;80;21161;-65
2020/12/04 10:10:09;;;;;;;86.67;42.07;;;;;;;1.16;100.00;100658.02;1767448;81;21181;-67
2020/12/04 10:12:37;;;;;;;62.30;32.38;;;;;;;1.16;100.00;100660.67;1765518;81;21176;-68
2020/12/04 10:15:04;;;;;;;87.15;37.35;;;;;;;1.06;100.00;100661.33;1751753;81;21165;-65
2020/12/04 10:17:33;;;;;;;70.25;36.63;;;;;;;0.99;100.00;100669.62;1764904;81;21204;-65
2020/12/04 10:20:01;;;;;;;90.12;46.70;;;;;;;1.04;100.00;100666.81;1765624;81;21184;-66
2020/12/04 10:22:29;;;;;;;85.10;38.73;;;;;;;1.05;100.00;100663.17;1764665;80;21035;-66
2020/12/04 10:24:57;;;;;;;71.57;31.27;;;;;;;1.00;100.00;100673.44;1750101;81;21142;-66
2020/12/04 10:27:25;;;;;;;72.90;38.10;;;;;;;0.96;100.00;100670.75;1768318;80;21157;-65
2020/12/04 10:29:54;;;;;;;65.87;28.80;;;;;;;0.95;100.00;100676.23;1768366;80;21162;-64
2020/12/04 10:32:22;;;;;;;84.92;40.33;;;;;;;0.98;100.00;100669.28;1763652;81;21613;-68
2020/12/04 10:34:49;;;;;;;74.77;35.33;;;;;;;0.98;100.00;100674.08;1755734;80;21625;-66
2020/12/04 10:37:17;;;;;;;80.10;35.55;;;;;;;0.98;100.00;100668.78;1738000;82;21172;-68
2020/12/04 10:39:46;;;;;;;81.60;38.13;;;;;;;1.01;100.00;100668.44;1753178;81;21101;-63
2020/12/04 10:42:14;;;;;;;75.30;30.95;;;;;;;1.00;100.00;100669.95;1744267;81;21614;-66
2020/12/04 10:44:42;;;;;;;89.00;45.60;;;;;;;0.97;100.00;100660.99;1765522;81;21002;-67
2020/12/04 10:47:09;;;;;;;86.20;36.80;;;;;;;0.92;100.00;100660.16;1763136;81;21542;-64
2020/12/04 10:49:37;;;;;;;97.43;44.10;;;;;;;0.92;100.00;100666.78;1765384;81;21252;-64
2020/12/04 10:52:04;;;;;;;76.02;38.75;;;;;;;0.94;100.00;100666.63;1770196;80;21638;-65
2020/12/04 10:54:33;;;;;;;88.60;40.65;;;;;;;1.00;100.00;100654.06;1752925;81;21360;-65
2020/12/04 10:57:02;;;;;;;91.20;34.03;;;;;;;0.97;100.00;100668.94;1758780;80;21035;-63
2020/12/04 10:59:29;;;;;;;93.03;44.33;;;;;;;0.94;100.00;100670.11;1748011;80;21567;-65
2020/12/04 11:02:07;;;;;;;102.47;44.70;;;;;;;0.95;100.00;100668.29;1722754;82;21770;-65
2020/12/04 11:07:13;;;;;;;84.83;38.75;;;;;;;0.93;100.00;100671.58;1754583;81;21190;-65
2020/12/04 11:09:44;;;;;;;101.90;44.15;;;;;;;1.00;100.00;100664.16;1746073;80;21206;-63
2020/12/04 11:12:11;;;;;;;95.90;44.90;;;;;;;1.00;100.00;100668.14;1754287;81;21587;-66
2020/12/04 11:14:43;;;;;;;97.43;46.33;;;;;;;0.93;100.00;100671.09;1742399;82;21130;-64
2020/12/04 11:17:10;;;;;;;98.57;48.43;;;;;;;0.97;100.00;100671.09;1753005;81;21128;-66
2020/12/04 11:19:38;;;;;;;68.63;32.90;;;;;;;0.97;100.00;100675.06;1756369;80;21376;-66
2020/12/04 11:22:05;;;;;;;93.10;40.33;;;;;;;1.00;100.00;100674.76;1744460;82;21158;-66
2020/12/04 11:24:33;;;;;;;88.50;37.17;;;;;;;0.94;100.00;100666.13;1754706;81;21205;-65
2020/12/04 11:27:01;;;;;;;77.73;35.03;;;;;;;0.96;100.00;100669.43;1744281;82;21146;-70